createdAt,value
2019-02-21T00:01:15.156Z,10.83
2019-02-21T00:03:43.204Z,10.97
2019-02-21T00:06:13.003Z,11.63
2019-02-21T00:08:41.479Z,11.73
2019-02-21T00:11:13.666Z,10.80
2019-02-21T00:13:44.600Z,12.23
2019-02-21T00:16:13.562Z,10.83
2019-02-21T00:18:41.852Z,11.87
2019-02-21T00:21:10.439Z,12.37
2019-02-21T00:23:38.595Z,11.53
2019-02-21T00:26:07.743Z,12.43
2019-02-21T00:28:36.150Z,11.10
2019-02-21T00:31:04.187Z,11.90
2019-02-21T00:33:32.283Z,11.57
2019-02-21T00:36:03.257Z,11.80
2019-02-21T00:38:33.820Z,11.63
2019-02-21T00:41:01.850Z,11.70
2019-02-21T00:43:31.545Z,11.00
2019-02-21T00:46:02.411Z,11.93
2019-02-21T00:48:30.555Z,12.33
2019-02-21T00:50:59.037Z,11.77
2019-02-21T00:53:27.205Z,11.83
2019-02-21T00:55:55.361Z,12.40
2019-02-21T00:58:23.913Z,10.87
2019-02-21T01:00:52.051Z,11.97
2019-02-21T01:03:20.445Z,12.37
2019-02-21T01:05:48.935Z,11.77
2019-02-21T01:08:17.079Z,11.17
2019-02-21T01:10:44.993Z,11.87
2019-02-21T01:13:13.223Z,12.53
2019-02-21T01:15:41.208Z,12.27
2019-02-21T01:18:09.349Z,11.53
2019-02-21T01:20:37.411Z,11.63
2019-02-21T01:23:05.833Z,13.40
2019-02-21T01:25:34.825Z,11.57
2019-02-21T01:28:03.166Z,11.70
2019-02-21T01:30:31.368Z,11.70
2019-02-21T01:32:59.399Z,11.50
2019-02-21T01:35:27.528Z,11.90
2019-02-21T01:37:55.540Z,12.50
2019-02-21T01:40:23.576Z,12.53
2019-02-21T01:42:52.092Z,11.60
2019-02-21T01:45:20.009Z,12.67
2019-02-21T01:47:51.171Z,12.13
2019-02-21T01:50:19.476Z,12.90
2019-02-21T01:52:47.305Z,12.70
2019-02-21T01:55:15.421Z,12.50
2019-02-21T01:57:44.136Z,13.17
2019-02-21T02:00:12.328Z,12.37
2019-02-21T02:02:40.313Z,12.33
2019-02-21T02:05:08.710Z,13.50
2019-02-21T02:07:37.360Z,12.27
2019-02-21T02:10:06.119Z,13.43
2019-02-21T02:12:34.162Z,14.13
2019-02-21T02:15:02.538Z,13.37
2019-02-21T02:17:30.675Z,13.33
2019-02-21T02:19:59.072Z,13.37
2019-02-21T02:22:26.871Z,13.13
2019-02-21T02:24:54.927Z,13.50
2019-02-21T02:27:23.287Z,13.43
2019-02-21T02:29:51.317Z,13.03
2019-02-21T02:32:19.526Z,12.67
2019-02-21T02:34:48.876Z,13.23
2019-02-21T02:37:17.309Z,14.23
2019-02-21T02:39:45.992Z,14.03
2019-02-21T02:42:14.246Z,14.13
2019-02-21T02:44:42.635Z,12.83
2019-02-21T02:47:10.806Z,14.10
2019-02-21T02:49:39.044Z,13.40
2019-02-21T02:52:07.069Z,12.73
2019-02-21T02:54:35.193Z,13.17
2019-02-21T02:57:08.514Z,13.50
2019-02-21T02:59:40.716Z,14.67
2019-02-21T03:02:06.663Z,13.13
2019-02-21T03:04:35.042Z,13.87
2019-02-21T03:07:02.960Z,14.70
2019-02-21T03:09:31.027Z,14.17
2019-02-21T03:11:59.313Z,13.90
2019-02-21T03:14:33.384Z,13.27
2019-02-21T03:17:04.729Z,14.10
2019-02-21T03:19:32.692Z,13.70
2019-02-21T03:22:00.900Z,14.90
2019-02-21T03:24:33.079Z,14.80
2019-02-21T03:27:01.531Z,14.63
2019-02-21T03:29:29.693Z,15.03
2019-02-21T03:31:58.193Z,15.40
2019-02-21T03:34:29.576Z,14.57
2019-02-21T03:36:57.847Z,14.87
2019-02-21T03:39:26.321Z,14.60
2019-02-21T03:41:54.775Z,14.53
2019-02-21T03:44:23.032Z,14.70
2019-02-21T03:46:54.053Z,13.70
2019-02-21T03:49:22.060Z,14.00
2019-02-21T03:51:50.109Z,16.37
2019-02-21T03:54:18.535Z,16.23
2019-02-21T03:56:46.625Z,15.10
2019-02-21T03:59:15.047Z,15.93
2019-02-21T04:01:43.185Z,16.57
2019-02-21T04:04:14.046Z,15.43
2019-02-21T04:06:42.389Z,16.23
2019-02-21T04:09:10.848Z,18.37
2019-02-21T04:11:43.161Z,16.23
2019-02-21T04:14:12.056Z,15.90
2019-02-21T04:16:40.611Z,16.33
2019-02-21T04:19:08.721Z,16.67
2019-02-21T04:21:36.873Z,18.43
2019-02-21T04:24:05.155Z,18.50
2019-02-21T04:26:33.351Z,15.97
2019-02-21T04:29:01.624Z,18.07
2019-02-21T04:31:31.482Z,17.17
2019-02-21T04:34:00.068Z,17.43
2019-02-21T04:36:29.771Z,17.20
2019-02-21T04:38:58.175Z,16.63
2019-02-21T04:41:26.328Z,16.77
2019-02-21T04:43:54.657Z,16.90
2019-02-21T04:46:22.865Z,17.57
2019-02-21T04:48:51.372Z,16.73
2019-02-21T04:51:19.549Z,16.23
2019-02-21T04:53:50.955Z,17.53
2019-02-21T04:56:18.855Z,17.80
2019-02-21T04:58:49.101Z,23.73
2019-02-21T05:01:17.148Z,17.67
2019-02-21T05:03:45.106Z,18.07
2019-02-21T05:06:13.383Z,18.23
2019-02-21T05:08:41.931Z,16.73
2019-02-21T05:11:10.124Z,18.00
2019-02-21T05:13:38.361Z,17.33
2019-02-21T05:16:06.763Z,18.67
2019-02-21T05:18:35.073Z,18.00
2019-02-21T05:21:03.310Z,17.17
2019-02-21T05:23:31.724Z,18.17
2019-02-21T05:26:00.454Z,17.57
2019-02-21T05:32:03.153Z,18.17
2019-02-21T05:34:52.136Z,17.63
2019-02-21T05:37:37.214Z,18.00
2019-02-21T05:40:25.243Z,17.83
2019-02-21T05:43:06.584Z,17.73
2019-02-21T05:46:07.214Z,17.50
2019-02-21T05:48:55.836Z,17.43
2019-02-21T05:51:41.650Z,18.80
2019-02-21T05:54:40.952Z,19.87
2019-02-21T05:57:19.600Z,18.70
2019-02-21T06:00:20.076Z,19.93
2019-02-21T06:03:18.237Z,17.80
2019-02-21T06:05:57.034Z,18.37
2019-02-21T06:08:40.129Z,19.13
2019-02-21T06:11:28.268Z,21.33
2019-02-21T06:14:17.936Z,21.17
2019-02-21T06:17:18.090Z,21.53
2019-02-21T06:19:51.651Z,21.70
2019-02-21T06:22:32.272Z,22.83
2019-02-21T06:25:10.581Z,22.60
2019-02-21T06:28:17.155Z,24.43
2019-02-21T06:30:50.226Z,23.10
2019-02-21T06:33:30.977Z,23.47
2019-02-21T06:36:27.021Z,24.03
2019-02-21T06:38:55.254Z,23.67
2019-02-21T06:41:31.768Z,24.53
2019-02-21T06:44:00.973Z,24.33
2019-02-21T06:46:30.848Z,23.57
2019-02-21T06:49:18.740Z,24.77
2019-02-21T06:52:00.321Z,24.60
2019-02-21T06:54:29.748Z,24.33
2019-02-21T06:56:57.907Z,25.23
2019-02-21T06:59:26.713Z,25.90
2019-02-21T07:02:05.251Z,26.90
2019-02-21T07:04:42.328Z,26.00
2019-02-21T07:07:11.154Z,27.03
2019-02-21T07:09:39.412Z,28.47
2019-02-21T07:12:07.602Z,28.37
2019-02-21T07:14:56.728Z,26.87
2019-02-21T07:17:27.259Z,25.37
2019-02-21T07:20:39.807Z,26.30
2019-02-21T07:23:07.716Z,25.43
2019-02-21T07:25:40.024Z,24.33
2019-02-21T07:28:11.816Z,24.83
2019-02-21T07:30:38.312Z,25.20
2019-02-21T07:33:27.790Z,24.77
2019-02-21T07:36:04.109Z,27.23
2019-02-21T07:38:41.954Z,28.57
2019-02-21T07:41:18.780Z,24.83
2019-02-21T07:43:50.492Z,27.70
2019-02-21T07:46:19.463Z,27.80
2019-02-21T07:48:48.944Z,26.50
2019-02-21T07:51:32.177Z,33.10
2019-02-21T07:54:01.992Z,28.90
2019-02-21T08:00:21.968Z,25.37
2019-02-21T08:02:53.957Z,26.47
2019-02-21T08:05:35.907Z,26.97
2019-02-21T08:08:09.309Z,27.20
2019-02-21T08:10:37.570Z,26.90
2019-02-21T08:13:22.536Z,28.00
2019-02-21T08:16:26.445Z,32.23
2019-02-21T08:18:56.340Z,28.67
2019-02-21T08:21:37.742Z,29.27
2019-02-21T08:24:11.413Z,28.07
2019-02-21T08:26:39.558Z,28.43
2019-02-21T08:29:21.001Z,25.40
2019-02-21T08:32:07.681Z,25.43
2019-02-21T08:39:01.923Z,25.50
2019-02-21T08:41:32.463Z,27.93
2019-02-21T08:44:06.660Z,28.37
2019-02-21T08:47:07.382Z,28.13
2019-02-21T08:50:05.350Z,26.73
2019-02-21T08:52:37.616Z,26.47
2019-02-21T08:55:13.374Z,25.03
2019-02-21T09:04:30.903Z,25.30
2019-02-21T09:07:01.891Z,24.77
2019-02-21T09:09:43.860Z,22.97
2019-02-21T09:12:40.975Z,24.60
2019-02-21T09:18:38.443Z,23.50
2019-02-21T09:21:47.912Z,23.53
2019-02-21T09:24:39.176Z,23.87
2019-02-21T09:27:05.501Z,24.80
2019-02-21T09:29:40.000Z,23.40
2019-02-21T09:32:10.242Z,23.07
2019-02-21T09:35:24.377Z,21.63
2019-02-21T09:38:35.352Z,23.33
2019-02-21T09:41:17.557Z,22.70
2019-02-21T09:43:51.280Z,24.07
2019-02-21T09:46:43.852Z,22.73
2019-02-21T09:49:57.976Z,23.67
2019-02-21T09:52:52.777Z,23.47
2019-02-21T09:55:25.091Z,22.83
2019-02-21T09:58:15.238Z,23.07
2019-02-21T10:01:22.265Z,23.67
2019-02-21T10:04:20.238Z,23.57
2019-02-21T10:06:51.722Z,22.63
2019-02-21T10:09:20.234Z,23.47
2019-02-21T10:11:51.255Z,23.93
2019-02-21T10:14:28.129Z,23.23
2019-02-21T10:17:10.706Z,23.00
2019-02-21T10:20:33.011Z,23.13
2019-02-21T10:23:45.989Z,21.60
2019-02-21T10:26:22.722Z,20.87
2019-02-21T10:28:51.046Z,21.57
2019-02-21T10:31:19.162Z,21.03
2019-02-21T10:34:27.736Z,20.03
2019-02-21T10:36:57.291Z,20.13
2019-02-21T10:39:30.181Z,21.13
2019-02-21T10:46:46.567Z,20.60
2019-02-21T10:49:28.335Z,20.37
2019-02-21T10:52:11.349Z,20.20
2019-02-21T10:54:47.394Z,20.93
2019-02-21T10:57:39.385Z,20.07
2019-02-21T11:00:38.560Z,20.07
2019-02-21T11:03:40.596Z,19.13
2019-02-21T11:06:21.413Z,19.90
2019-02-21T11:09:36.244Z,18.60
2019-02-21T11:13:01.944Z,18.53
2019-02-21T11:15:49.046Z,19.33
2019-02-21T11:18:43.529Z,18.87
2019-02-21T11:21:12.452Z,18.10
2019-02-21T11:23:40.985Z,18.70
2019-02-21T11:26:15.046Z,18.67
2019-02-21T11:31:56.593Z,19.20
2019-02-21T11:35:15.627Z,17.90
2019-02-21T11:37:46.895Z,19.20
2019-02-21T11:40:25.725Z,19.33
2019-02-21T11:50:25.045Z,18.43
2019-02-21T11:53:10.738Z,18.73
2019-02-21T11:55:57.446Z,20.00
2019-02-21T11:58:32.516Z,17.43
2019-02-21T12:01:05.008Z,16.57
2019-02-21T12:03:34.009Z,16.27
2019-02-21T12:06:15.120Z,16.53
2019-02-21T12:09:17.065Z,15.30
2019-02-21T12:12:19.796Z,15.80
2019-02-21T12:15:29.034Z,16.97
2019-02-21T12:18:03.365Z,16.33
2019-02-21T12:20:39.010Z,16.03
2019-02-21T12:23:10.783Z,15.10
2019-02-21T12:25:56.786Z,15.03
2019-02-21T12:28:59.433Z,14.03
2019-02-21T12:31:38.627Z,14.20
2019-02-21T12:34:21.346Z,12.80
2019-02-21T12:37:12.045Z,15.00
2019-02-21T12:39:45.125Z,14.20
2019-02-21T12:42:23.953Z,14.40
2019-02-21T12:44:52.691Z,13.47
2019-02-21T12:47:31.764Z,13.80
2019-02-21T12:50:25.155Z,14.47
2019-02-21T12:52:56.014Z,13.73
2019-02-21T12:55:37.173Z,15.23
2019-02-21T12:58:20.915Z,14.77
2019-02-21T13:00:51.120Z,15.40
2019-02-21T13:03:21.996Z,15.00
2019-02-21T13:05:51.568Z,15.40
2019-02-21T13:08:19.807Z,15.27
2019-02-21T13:10:47.688Z,14.77
2019-02-21T13:13:18.535Z,15.00
2019-02-21T13:16:40.103Z,15.93
2019-02-21T13:19:11.244Z,14.30
2019-02-21T13:26:26.744Z,15.43
2019-02-21T13:29:30.334Z,16.30
2019-02-21T13:32:43.525Z,15.37
2019-02-21T13:38:34.860Z,15.17
2019-02-21T13:41:05.391Z,14.87
2019-02-21T13:44:34.295Z,14.53
2019-02-21T13:47:39.465Z,15.60
2019-02-21T13:50:51.327Z,14.80
2019-02-21T13:53:46.605Z,15.03
2019-02-21T13:56:39.507Z,15.50
2019-02-21T13:59:19.108Z,14.07
2019-02-21T14:02:27.090Z,13.30
2019-02-21T14:05:21.990Z,15.13
2019-02-21T14:08:25.530Z,16.73
2019-02-21T14:11:17.373Z,14.77
2019-02-21T14:14:19.624Z,16.20
2019-02-21T14:21:09.939Z,15.40
2019-02-21T14:23:37.581Z,15.60
2019-02-21T14:26:13.096Z,16.50
2019-02-21T14:28:44.990Z,16.87
2019-02-21T14:31:13.327Z,16.33
2019-02-21T14:33:58.829Z,16.90
2019-02-21T14:37:19.446Z,16.53
2019-02-21T14:40:08.783Z,15.57
2019-02-21T14:42:48.350Z,16.50
2019-02-21T14:45:20.194Z,15.43
2019-02-21T14:48:21.634Z,17.13
2019-02-21T14:50:53.931Z,16.30
2019-02-21T14:53:37.717Z,15.83
2019-02-21T14:56:23.935Z,15.23
2019-02-21T14:59:15.584Z,15.63
2019-02-21T15:01:49.351Z,17.20
2019-02-21T15:05:38.052Z,16.37
2019-02-21T15:12:11.844Z,16.43
2019-02-21T15:14:42.283Z,16.97
2019-02-21T15:17:25.351Z,15.60
2019-02-21T15:20:12.730Z,14.87
2019-02-21T15:23:05.163Z,14.87
2019-02-21T15:25:46.387Z,16.13
2019-02-21T15:28:23.280Z,17.27
2019-02-21T15:31:06.860Z,16.57
2019-02-21T15:33:50.215Z,17.23
2019-02-21T15:36:41.938Z,16.20
2019-02-21T15:39:25.971Z,15.50
2019-02-21T15:41:54.422Z,16.83
2019-02-21T15:44:25.811Z,17.00
2019-02-21T15:46:56.411Z,17.37
2019-02-21T15:49:31.280Z,17.80
2019-02-21T15:56:17.759Z,17.47
2019-02-21T15:58:50.792Z,17.60
2019-02-21T16:05:09.141Z,16.33
2019-02-21T16:07:39.974Z,17.17
2019-02-21T16:10:19.132Z,17.07
2019-02-21T16:13:07.019Z,17.83
2019-02-21T16:15:43.081Z,17.20
2019-02-21T16:18:21.584Z,17.73
2019-02-21T16:21:03.614Z,17.53
2019-02-21T16:23:35.614Z,18.33
2019-02-21T16:26:06.447Z,17.90
2019-02-21T16:28:34.531Z,17.90
2019-02-21T16:31:04.203Z,17.80
2019-02-21T16:33:52.072Z,16.87
2019-02-21T16:36:19.763Z,18.07
2019-02-21T16:38:49.145Z,17.23
2019-02-21T16:41:51.310Z,17.80
2019-02-21T16:44:43.213Z,17.37
2019-02-21T16:47:12.247Z,20.37
2019-02-21T16:49:42.631Z,18.37
2019-02-21T16:52:15.842Z,18.23
2019-02-21T16:55:08.858Z,18.03
2019-02-21T16:57:53.466Z,17.20
2019-02-21T17:00:51.327Z,20.27
2019-02-21T17:03:45.890Z,19.10
2019-02-21T17:06:38.630Z,17.40
2019-02-21T17:09:58.058Z,18.37
2019-02-21T17:12:56.313Z,17.30
2019-02-21T17:21:29.135Z,18.00
2019-02-21T17:25:01.750Z,17.90
2019-02-21T17:31:14.197Z,19.13
2019-02-21T17:34:47.743Z,19.70
2019-02-21T17:37:29.994Z,18.53
2019-02-21T17:40:10.700Z,20.00
2019-02-21T17:42:45.979Z,18.83
2019-02-21T17:45:21.898Z,19.90
2019-02-21T17:48:56.392Z,19.73
2019-02-21T17:51:30.256Z,20.23
2019-02-21T17:54:07.403Z,20.80
2019-02-21T17:57:14.928Z,20.63
2019-02-21T17:59:52.653Z,20.37
2019-02-21T18:02:53.935Z,19.93
2019-02-21T18:05:46.632Z,21.00
2019-02-21T18:08:31.096Z,21.50
2019-02-21T18:11:26.673Z,20.73
2019-02-21T18:14:07.340Z,20.70
2019-02-21T18:16:40.169Z,21.23
2019-02-21T18:19:22.814Z,21.93
2019-02-21T18:21:59.476Z,21.57
2019-02-21T18:25:20.822Z,19.50
2019-02-21T18:28:22.923Z,20.10
2019-02-21T18:31:04.797Z,21.17
2019-02-21T18:34:52.234Z,21.53
2019-02-21T18:37:24.204Z,20.43
2019-02-21T18:39:59.081Z,20.70
2019-02-21T18:42:26.703Z,20.40
2019-02-21T18:45:13.449Z,21.20
2019-02-21T18:47:43.503Z,21.97
2019-02-21T18:50:14.430Z,20.60
2019-02-21T18:53:09.732Z,21.47
2019-02-21T18:55:58.180Z,20.50
2019-02-21T18:58:28.728Z,20.60
2019-02-21T19:00:59.015Z,20.30
2019-02-21T19:03:26.701Z,19.93
2019-02-21T19:05:56.806Z,21.83
2019-02-21T19:08:24.707Z,21.57
2019-02-21T19:11:05.787Z,22.47
2019-02-21T19:13:39.966Z,23.30
2019-02-21T19:16:19.499Z,23.43
2019-02-21T19:18:54.824Z,22.43
2019-02-21T19:21:26.688Z,22.17
2019-02-21T19:23:58.764Z,24.20
2019-02-21T19:26:30.411Z,22.87
2019-02-21T19:29:01.780Z,22.93
2019-02-21T19:31:32.322Z,23.43
2019-02-21T19:34:04.390Z,24.10
2019-02-21T19:36:39.292Z,23.50
2019-02-21T19:39:10.954Z,23.97
2019-02-21T19:41:45.031Z,22.97
2019-02-21T19:44:13.093Z,22.50
2019-02-21T19:46:41.164Z,22.40
2019-02-21T19:49:09.160Z,24.23
2019-02-21T19:51:37.773Z,23.07
2019-02-21T19:54:06.481Z,22.60
2019-02-21T19:56:36.269Z,22.27
2019-02-21T19:59:09.423Z,22.23
2019-02-21T20:01:45.370Z,23.43
2019-02-21T20:04:18.038Z,22.37
2019-02-21T20:06:49.251Z,23.20
2019-02-21T20:09:20.355Z,22.80
2019-02-21T20:12:29.344Z,23.23
2019-02-21T20:15:19.280Z,22.77
2019-02-21T20:17:57.447Z,22.20
2019-02-21T20:24:05.262Z,22.60
2019-02-21T20:27:17.136Z,22.87
2019-02-21T20:30:27.653Z,21.97
2019-02-21T20:33:00.855Z,23.17
2019-02-21T20:35:52.809Z,22.13
2019-02-21T20:38:34.389Z,22.80
2019-02-21T20:41:07.864Z,22.53
2019-02-21T20:43:54.859Z,22.17
2019-02-21T20:46:28.742Z,22.40
2019-02-21T20:49:20.169Z,22.33
2019-02-21T20:51:53.310Z,22.23
2019-02-21T20:54:26.534Z,22.03
2019-02-21T20:56:55.274Z,23.13
2019-02-21T20:59:40.304Z,23.37
2019-02-21T21:02:19.765Z,22.47
2019-02-21T21:04:55.548Z,23.07
2019-02-21T21:07:27.335Z,24.20
2019-02-21T21:09:57.262Z,23.20
2019-02-21T21:12:40.929Z,23.47
2019-02-21T21:15:15.981Z,24.03
2019-02-21T21:17:57.140Z,24.87
2019-02-21T21:20:38.139Z,23.00
2019-02-21T21:23:26.454Z,24.17
2019-02-21T21:26:06.411Z,23.93
2019-02-21T21:28:38.133Z,24.47
2019-02-21T21:31:09.234Z,23.50
2019-02-21T21:33:39.902Z,23.40
2019-02-21T21:36:16.979Z,23.40
2019-02-21T21:38:54.205Z,24.10
2019-02-21T21:41:22.360Z,23.07
2019-02-21T21:43:56.917Z,24.80
2019-02-21T21:46:46.317Z,23.63
2019-02-21T21:49:24.938Z,24.30
2019-02-21T21:52:56.074Z,23.70
2019-02-21T21:55:24.693Z,24.33
2019-02-21T21:58:03.594Z,23.93
2019-02-21T22:00:31.866Z,24.03
2019-02-21T22:02:59.618Z,23.40
2019-02-21T22:05:28.309Z,25.03
2019-02-21T22:07:56.225Z,23.83
2019-02-21T22:10:29.056Z,24.40
2019-02-21T22:12:59.830Z,24.37
2019-02-21T22:15:30.362Z,24.53
2019-02-21T22:17:59.250Z,24.73
2019-02-21T22:20:35.221Z,24.63
2019-02-21T22:23:05.483Z,24.43
2019-02-21T22:25:37.276Z,25.20
2019-02-21T22:28:07.016Z,25.40
2019-02-21T22:30:36.439Z,25.50
2019-02-21T22:33:04.765Z,25.80
2019-02-21T22:35:34.564Z,26.70
2019-02-21T22:38:05.807Z,25.00
2019-02-21T22:40:35.274Z,25.60
2019-02-21T22:43:03.794Z,25.93
2019-02-21T22:45:33.325Z,26.40
2019-02-21T22:48:09.545Z,26.67
2019-02-21T22:50:41.759Z,25.93
2019-02-21T22:53:10.191Z,27.00
2019-02-21T22:55:38.437Z,25.57
2019-02-21T22:58:06.991Z,26.80
2019-02-21T23:01:23.054Z,26.47
2019-02-21T23:04:36.114Z,28.23
2019-02-21T23:07:29.859Z,28.03
2019-02-21T23:09:58.287Z,26.13
2019-02-21T23:12:28.141Z,28.07
2019-02-21T23:14:57.893Z,28.13
2019-02-21T23:17:27.781Z,27.97
2019-02-21T23:19:57.623Z,26.63
2019-02-21T23:22:30.434Z,29.70
2019-02-21T23:24:59.543Z,29.17
2019-02-21T23:27:27.660Z,29.67
2019-02-21T23:30:05.425Z,29.57
2019-02-21T23:32:40.770Z,29.57
2019-02-21T23:35:11.960Z,28.67
2019-02-21T23:37:40.717Z,29.73
2019-02-21T23:40:10.256Z,29.83
2019-02-21T23:42:38.463Z,30.83
2019-02-21T23:45:07.743Z,30.83
2019-02-21T23:47:35.889Z,31.10
2019-02-21T23:50:06.254Z,30.97
2019-02-21T23:52:34.771Z,31.30
2019-02-21T23:55:02.910Z,31.03
2019-02-21T23:57:31.289Z,31.00
